Time;durP1;ratioP1;P1;durP2;ratioP2;P2;SDS_P1;SDS_P2;PMS_P1;PMS_P2;Temp;Humidity;BMP_temperature;BMP_pressure;BME280_temperature;BME280_humidity;BME280_pressure;Samples;Min_cycle;Max_cycle;Signal;HPM_P1;HPM_P2
2022/05/17 00:02:17;;;;;;;2.05;0.70;;;15.40;77.40;;;;;;5076465;28;20054;-82
2022/05/17 00:04:45;;;;;;;1.27;0.60;;;15.40;77.50;;;;;;5088385;28;20051;-83
2022/05/17 00:07:12;;;;;;;3.00;0.70;;;15.40;77.50;;;;;;5051801;28;20081;-81
2022/05/17 00:09:39;;;;;;;2.63;0.70;;;15.30;77.50;;;;;;5082812;28;20064;-81
2022/05/17 00:12:06;;;;;;;2.10;0.93;;;15.30;77.60;;;;;;5081733;28;20090;-82
2022/05/17 00:14:34;;;;;;;3.22;0.93;;;15.30;77.70;;;;;;5079691;28;20063;-81
2022/05/17 00:17:02;;;;;;;3.35;0.80;;;15.30;77.80;;;;;;5088989;28;20059;-80
2022/05/17 00:19:30;;;;;;;3.33;0.80;;;15.30;77.80;;;;;;5092184;28;20031;-83
2022/05/17 00:22:00;;;;;;;2.30;0.60;;;15.20;77.80;;;;;;5090082;28;20051;-83
2022/05/17 00:24:27;;;;;;;3.30;0.80;;;15.20;78.00;;;;;;5070940;28;20600;-81
2022/05/17 00:26:54;;;;;;;1.20;0.50;;;15.10;78.00;;;;;;5082855;28;20101;-86
2022/05/17 00:29:21;;;;;;;2.40;0.75;;;15.10;78.00;;;;;;5089820;28;20040;-81
2022/05/17 00:31:49;;;;;;;2.10;0.75;;;15.10;78.10;;;;;;5088333;28;20044;-80
2022/05/17 00:34:16;;;;;;;3.50;0.80;;;15.10;78.20;;;;;;5099308;28;20048;-81
2022/05/17 00:36:43;;;;;;;2.50;0.70;;;15.10;78.20;;;;;;5070502;28;20064;-82
2022/05/17 00:39:10;;;;;;;3.03;0.60;;;15.20;78.20;;;;;;5100805;28;20448;-88
2022/05/17 00:41:37;;;;;;;2.15;0.80;;;15.20;78.10;;;;;;5094462;28;20043;-82
2022/05/17 00:46:59;;;;;;;2.65;0.73;;;15.30;77.90;;;;;;5127294;27;20044;-82
2022/05/17 00:49:58;;;;;;;2.47;0.60;;;15.30;77.90;;;;;;5097159;28;20048;-81
2022/05/17 00:52:25;;;;;;;2.25;0.57;;;15.40;77.90;;;;;;5090212;28;20458;-82
2022/05/17 00:54:57;;;;;;;1.95;0.60;;;15.30;77.90;;;;;;5092702;28;20341;-80
2022/05/17 00:57:33;;;;;;;3.25;0.80;;;15.40;78.10;;;;;;5099852;28;20036;-81
2022/05/17 01:00:04;;;;;;;2.85;0.50;;;15.40;78.10;;;;;;5094544;28;20118;-82
2022/05/17 01:02:32;;;;;;;4.28;0.90;;;15.30;78.10;;;;;;5083621;28;20040;-81
2022/05/17 01:05:01;;;;;;;1.27;0.60;;;15.30;78.20;;;;;;5076176;28;20039;-81
2022/05/17 01:07:39;;;;;;;2.97;0.90;;;15.30;78.40;;;;;;5094962;28;20043;-81
2022/05/17 01:10:07;;;;;;;3.13;0.68;;;15.30;78.40;;;;;;5110151;28;20044;-81
2022/05/17 01:12:36;;;;;;;2.75;0.88;;;15.20;78.50;;;;;;5105742;28;20442;-81
2022/05/17 01:15:06;;;;;;;2.17;0.65;;;15.20;78.50;;;;;;5087387;28;20514;-81
2022/05/17 01:17:37;;;;;;;2.65;0.52;;;15.10;79.20;;;;;;5105170;28;20056;-81
2022/05/17 01:20:10;;;;;;;1.75;0.63;;;15.10;78.70;;;;;;5109499;27;20073;-81
2022/05/17 01:22:38;;;;;;;2.67;0.77;;;15.10;78.80;;;;;;5088390;28;20143;-82
2022/05/17 01:25:05;;;;;;;3.00;0.75;;;15.10;78.80;;;;;;5073576;28;20051;-81
2022/05/17 01:27:36;;;;;;;1.80;0.77;;;15.10;78.90;;;;;;5097182;28;20052;-81
2022/05/17 01:30:05;;;;;;;2.20;0.63;;;15.10;79.00;;;;;;5111682;28;20374;-81
2022/05/17 01:32:33;;;;;;;2.60;0.70;;;15.10;78.90;;;;;;5068984;28;20460;-81
2022/05/17 01:35:00;;;;;;;2.50;0.80;;;15.10;78.80;;;;;;5066657;28;20094;-80
2022/05/17 01:37:27;;;;;;;3.80;0.90;;;15.20;78.70;;;;;;5061246;28;20391;-81
2022/05/17 01:39:54;;;;;;;3.13;0.88;;;15.20;78.70;;;;;;5095781;28;20385;-82
2022/05/17 01:42:21;;;;;;;2.53;0.70;;;15.30;78.60;;;;;;5078282;28;20120;-81
2022/05/17 01:44:48;;;;;;;4.57;1.02;;;15.30;78.50;;;;;;5095556;28;20043;-82
2022/05/17 01:47:15;;;;;;;2.75;0.70;;;15.40;78.50;;;;;;5093472;28;20070;-82
2022/05/17 01:49:42;;;;;;;4.07;1.08;;;15.30;78.50;;;;;;5112964;28;20040;-82
2022/05/17 01:52:10;;;;;;;4.40;0.93;;;15.40;78.60;;;;;;5092385;28;20492;-82
2022/05/17 01:54:37;;;;;;;3.13;1.13;;;15.40;78.70;;;;;;5059104;28;20055;-82
2022/05/17 01:57:05;;;;;;;3.70;1.00;;;15.40;78.80;;;;;;5070995;28;20047;-82
2022/05/17 01:59:33;;;;;;;2.35;1.13;;;15.40;78.90;;;;;;5095364;28;20047;-83
2022/05/17 02:02:00;;;;;;;1.90;0.80;;;15.40;78.90;;;;;;5074417;28;20064;-82
2022/05/17 02:04:27;;;;;;;4.57;0.98;;;15.40;79.00;;;;;;5078823;28;20555;-81
2022/05/17 02:06:55;;;;;;;3.80;1.10;;;15.40;79.10;;;;;;5096295;28;20043;-81
2022/05/17 02:09:22;;;;;;;2.70;1.33;;;15.40;79.10;;;;;;5092100;28;20101;-82
2022/05/17 02:11:49;;;;;;;2.75;0.98;;;15.30;79.20;;;;;;5111663;28;20067;-82
2022/05/17 02:14:17;;;;;;;2.03;0.63;;;15.30;79.30;;;;;;5078210;28;20040;-82
2022/05/17 02:16:44;;;;;;;3.22;0.90;;;15.30;79.30;;;;;;5111064;28;20115;-82
2022/05/17 02:19:12;;;;;;;1.90;1.10;;;15.30;79.30;;;;;;5092440;28;20317;-80
2022/05/17 02:21:39;;;;;;;3.75;0.90;;;15.30;79.30;;;;;;5094373;28;20134;-80
2022/05/17 02:24:07;;;;;;;2.20;0.93;;;15.30;79.40;;;;;;5097634;28;20114;-81
2022/05/17 02:26:34;;;;;;;2.58;0.85;;;15.40;79.50;;;;;;5110576;28;20055;-81
2022/05/17 02:29:01;;;;;;;4.03;0.73;;;15.40;79.50;;;;;;5100321;28;20074;-81
2022/05/17 02:31:30;;;;;;;4.05;1.00;;;15.40;79.50;;;;;;5060255;28;20426;-81
2022/05/17 02:33:57;;;;;;;3.25;1.27;;;15.40;79.50;;;;;;5112557;28;20069;-81
2022/05/17 02:36:25;;;;;;;3.42;1.50;;;15.40;79.50;;;;;;5104872;28;20032;-82
2022/05/17 02:38:53;;;;;;;2.10;0.93;;;15.40;79.50;;;;;;5109002;28;20040;-82
2022/05/17 02:41:20;;;;;;;2.25;0.80;;;15.40;79.50;;;;;;5078857;28;20449;-81
2022/05/17 02:43:47;;;;;;;2.17;0.80;;;15.40;79.60;;;;;;5075990;28;20040;-81
2022/05/17 02:46:14;;;;;;;4.40;0.90;;;15.30;79.60;;;;;;5092513;28;20039;-82
2022/05/17 02:48:42;;;;;;;3.42;1.13;;;15.30;79.70;;;;;;5086291;28;20047;-82
2022/05/17 02:51:12;;;;;;;2.50;1.00;;;15.40;79.80;;;;;;5094975;28;20409;-82
2022/05/17 02:53:39;;;;;;;3.42;0.98;;;15.40;79.80;;;;;;5094439;28;20047;-82
2022/05/17 02:56:07;;;;;;;2.60;1.02;;;15.30;79.80;;;;;;5089403;28;20031;-82
2022/05/17 02:58:35;;;;;;;2.40;1.20;;;15.30;79.80;;;;;;5112351;28;20035;-82
2022/05/17 03:01:02;;;;;;;3.78;1.13;;;15.30;79.90;;;;;;5094617;28;20047;-81
2022/05/17 03:03:30;;;;;;;3.05;1.27;;;15.30;80.00;;;;;;5110715;28;20112;-80
2022/05/17 03:05:57;;;;;;;3.17;1.02;;;15.30;80.10;;;;;;5092026;28;20064;-80
2022/05/17 03:08:24;;;;;;;2.30;0.98;;;15.20;80.20;;;;;;5090298;28;20419;-81
2022/05/17 03:10:51;;;;;;;5.20;1.30;;;15.20;80.30;;;;;;5088933;28;20083;-80
2022/05/17 03:13:18;;;;;;;3.30;1.48;;;15.10;80.40;;;;;;5094432;28;20511;-80
2022/05/17 03:15:45;;;;;;;3.25;1.25;;;15.10;80.50;;;;;;5111291;28;20191;-80
2022/05/17 03:18:13;;;;;;;2.60;1.20;;;15.10;80.50;;;;;;5094423;28;20061;-80
2022/05/17 03:20:41;;;;;;;3.38;1.17;;;15.10;80.60;;;;;;5103685;28;20036;-80
2022/05/17 03:23:08;;;;;;;4.15;1.38;;;15.00;80.60;;;;;;5109894;28;20046;-81
2022/05/17 03:25:37;;;;;;;4.47;1.30;;;15.00;80.70;;;;;;5090227;28;20043;-81
2022/05/17 03:28:05;;;;;;;3.65;1.13;;;15.00;80.70;;;;;;5090031;28;20039;-81
2022/05/17 03:30:32;;;;;;;2.63;1.20;;;15.00;80.70;;;;;;5094356;28;20055;-81
2022/05/17 03:32:59;;;;;;;3.03;1.20;;;15.00;80.80;;;;;;5094578;28;20036;-81
2022/05/17 03:35:32;;;;;;;4.78;1.23;;;15.00;80.80;;;;;;5079158;28;20496;-81
2022/05/17 03:37:59;;;;;;;2.53;1.10;;;15.00;80.90;;;;;;5112729;28;20039;-81
2022/05/17 03:40:26;;;;;;;2.72;1.30;;;15.00;81.00;;;;;;5090517;28;20044;-81
2022/05/17 03:42:53;;;;;;;3.05;1.42;;;15.00;81.00;;;;;;5093185;28;20492;-81
2022/05/17 03:45:20;;;;;;;3.47;1.17;;;15.00;81.00;;;;;;5073744;28;20044;-81
2022/05/17 03:47:48;;;;;;;2.65;1.30;;;15.00;81.00;;;;;;5094752;28;20121;-81
2022/05/17 03:50:17;;;;;;;3.00;1.02;;;15.00;81.10;;;;;;5092858;28;20043;-81
2022/05/17 03:52:45;;;;;;;4.47;1.10;;;15.00;81.10;;;;;;5097319;28;20124;-81
2022/05/17 03:55:12;;;;;;;2.53;1.00;;;15.00;81.10;;;;;;5098334;28;20100;-83
2022/05/17 03:57:39;;;;;;;3.92;1.40;;;15.00;81.10;;;;;;5113979;28;20035;-82
2022/05/17 04:00:08;;;;;;;3.03;0.88;;;15.00;81.10;;;;;;5081062;28;20110;-82
2022/05/17 04:02:43;;;;;;;2.63;0.93;;;15.00;81.00;;;;;;5098849;28;20044;-83
2022/05/17 04:05:11;;;;;;;2.85;0.95;;;15.10;81.00;;;;;;5077321;28;20140;-82
2022/05/17 04:07:38;;;;;;;3.10;1.10;;;15.10;80.90;;;;;;5090527;28;20447;-81
2022/05/17 04:10:07;;;;;;;2.65;0.80;;;15.10;80.90;;;;;;5094540;28;20118;-82
2022/05/17 04:12:35;;;;;;;2.72;0.90;;;15.20;80.80;;;;;;5109165;28;20138;-82
2022/05/17 04:15:06;;;;;;;2.22;0.80;;;15.30;80.80;;;;;;5069928;28;20445;-82
2022/05/17 04:17:33;;;;;;;2.30;0.80;;;15.30;80.70;;;;;;5095345;28;20053;-81
2022/05/17 04:20:01;;;;;;;2.05;0.88;;;15.40;80.60;;;;;;5097576;28;20406;-81
2022/05/17 04:22:28;;;;;;;2.63;0.98;;;15.40;80.50;;;;;;5110911;28;20052;-81
2022/05/17 04:24:56;;;;;;;1.67;0.80;;;15.50;80.40;;;;;;5080690;28;20036;-82
2022/05/17 04:27:25;;;;;;;4.47;0.90;;;15.50;80.40;;;;;;5114394;28;20058;-81
2022/05/17 04:29:53;;;;;;;1.95;0.77;;;15.60;80.90;;;;;;5114429;28;20044;-81
2022/05/17 04:32:20;;;;;;;2.50;0.80;;;15.60;80.20;;;;;;5114431;28;20055;-82
2022/05/17 04:34:47;;;;;;;3.33;0.80;;;15.70;80.10;;;;;;5104137;28;20499;-81
2022/05/17 04:37:14;;;;;;;2.03;0.80;;;15.80;80.10;;;;;;5097387;28;20436;-82
2022/05/17 04:39:41;;;;;;;2.47;0.90;;;15.80;80.00;;;;;;5097594;28;20122;-81
2022/05/17 04:42:08;;;;;;;2.38;0.90;;;15.80;80.00;;;;;;5097287;28;20047;-82
2022/05/17 04:44:35;;;;;;;1.55;0.70;;;15.90;80.00;;;;;;5113846;28;20047;-81
2022/05/17 04:47:03;;;;;;;2.33;0.80;;;15.90;80.30;;;;;;5078082;28;20048;-82
2022/05/17 04:49:31;;;;;;;2.45;0.95;;;15.90;80.00;;;;;;5097155;28;20101;-82
2022/05/17 04:51:59;;;;;;;1.95;0.90;;;16.00;80.00;;;;;;5097249;28;20067;-82
2022/05/17 04:54:27;;;;;;;2.63;0.82;;;16.00;79.90;;;;;;5113223;28;20043;-81
2022/05/17 04:56:54;;;;;;;2.30;0.95;;;16.10;80.00;;;;;;5091649;28;20104;-81
2022/05/17 04:59:44;;;;;;;3.15;1.10;;;16.10;79.90;;;;;;5095666;28;20036;-81
2022/05/17 05:02:11;;;;;;;3.10;1.00;;;16.20;79.90;;;;;;5112578;28;20043;-85
2022/05/17 05:04:38;;;;;;;2.10;0.85;;;16.20;79.90;;;;;;5093191;28;20510;-84
2022/05/17 05:07:06;;;;;;;2.80;0.90;;;16.30;79.90;;;;;;5063373;28;20407;-84
2022/05/17 05:09:33;;;;;;;4.80;1.20;;;16.40;79.90;;;;;;5096722;28;20063;-84
2022/05/17 05:12:00;;;;;;;3.17;1.10;;;16.40;79.70;;;;;;5093658;28;20036;-83
2022/05/17 05:14:28;;;;;;;3.13;1.33;;;16.50;79.70;;;;;;5093045;28;20552;-83
2022/05/17 05:16:55;;;;;;;2.63;0.82;;;16.50;79.70;;;;;;5080403;28;20035;-82
2022/05/17 05:19:22;;;;;;;4.30;1.20;;;16.60;79.60;;;;;;5093573;28;20132;-82
2022/05/17 05:21:49;;;;;;;3.55;1.30;;;16.60;79.60;;;;;;5080040;28;20035;-83
2022/05/17 05:24:16;;;;;;;2.88;1.10;;;16.70;79.60;;;;;;5094685;28;20063;-83
2022/05/17 05:26:43;;;;;;;3.00;1.13;;;16.80;79.60;;;;;;5088310;28;20488;-82
2022/05/17 05:29:10;;;;;;;3.70;1.35;;;16.80;79.40;;;;;;5096232;28;20356;-82
2022/05/17 05:31:38;;;;;;;3.25;1.45;;;16.90;79.30;;;;;;5096539;28;20139;-84
2022/05/17 05:34:05;;;;;;;3.58;1.17;;;17.00;79.20;;;;;;5096500;28;20512;-83
2022/05/17 05:36:32;;;;;;;2.67;1.13;;;17.10;79.20;;;;;;5079415;28;20039;-82
2022/05/17 05:38:59;;;;;;;4.65;1.73;;;17.20;79.10;;;;;;5096143;28;20039;-83
2022/05/17 05:41:26;;;;;;;3.78;1.63;;;17.30;78.90;;;;;;5085228;28;20035;-83
2022/05/17 05:43:53;;;;;;;2.67;0.90;;;17.40;79.30;;;;;;5086360;28;20027;-83
2022/05/17 05:46:21;;;;;;;4.10;0.98;;;17.50;78.50;;;;;;5079052;28;20046;-84
2022/05/17 05:48:50;;;;;;;3.10;1.10;;;17.60;78.30;;;;;;5093514;28;20224;-85
2022/05/17 05:51:18;;;;;;;3.50;1.20;;;17.70;78.20;;;;;;5085514;28;20496;-84
2022/05/17 05:53:45;;;;;;;3.53;1.30;;;17.80;78.10;;;;;;5079269;28;20044;-84
2022/05/17 05:56:12;;;;;;;3.55;1.15;;;17.90;78.00;;;;;;5079223;28;20050;-83
2022/05/17 05:58:42;;;;;;;3.58;1.40;;;17.90;78.00;;;;;;5092895;28;20062;-85
2022/05/17 06:01:09;;;;;;;3.20;1.55;;;17.90;77.80;;;;;;5111251;28;20035;-86
2022/05/17 06:03:36;;;;;;;3.30;1.50;;;17.90;77.80;;;;;;5096402;28;20043;-86
2022/05/17 06:06:07;;;;;;;4.45;1.35;;;17.90;77.80;;;;;;5096500;28;20051;-84
2022/05/17 06:08:35;;;;;;;4.35;1.45;;;17.90;77.70;;;;;;5110564;28;20114;-84
2022/05/17 06:11:04;;;;;;;5.97;2.28;;;17.90;77.70;;;;;;5094549;28;20051;-84
2022/05/17 06:13:32;;;;;;;4.60;1.50;;;17.90;77.60;;;;;;5096185;28;20074;-84
2022/05/17 06:16:00;;;;;;;3.47;2.13;;;17.90;77.60;;;;;;5112457;28;20043;-85
2022/05/17 06:18:27;;;;;;;4.10;1.63;;;17.90;77.60;;;;;;5096056;28;20036;-85
2022/05/17 06:20:55;;;;;;;2.92;1.52;;;17.90;77.50;;;;;;5085484;28;20073;-84
2022/05/17 06:23:25;;;;;;;3.40;1.38;;;18.00;77.50;;;;;;5112502;28;20158;-84
2022/05/17 06:25:53;;;;;;;4.47;1.40;;;18.10;77.40;;;;;;5096136;28;20055;-83
2022/05/17 06:28:20;;;;;;;4.70;1.20;;;18.10;77.20;;;;;;5112707;28;20095;-82
2022/05/17 06:30:47;;;;;;;2.35;1.10;;;18.20;77.60;;;;;;5075137;28;20150;-82
2022/05/17 06:33:15;;;;;;;2.88;1.08;;;18.30;76.80;;;;;;5094229;28;20549;-82
2022/05/17 06:35:45;;;;;;;2.17;0.75;;;18.30;76.60;;;;;;5102916;28;20412;-82
2022/05/17 06:38:13;;;;;;;1.42;0.80;;;18.40;76.30;;;;;;5069714;28;20048;-82
2022/05/17 06:40:41;;;;;;;2.83;0.65;;;18.50;76.00;;;;;;5087159;28;20032;-82
2022/05/17 06:43:08;;;;;;;2.85;0.50;;;18.60;75.70;;;;;;5075940;28;20104;-83
2022/05/17 06:45:35;;;;;;;2.67;0.55;;;18.80;75.50;;;;;;5078579;28;20130;-83
2022/05/17 06:48:02;;;;;;;1.30;0.40;;;18.90;75.10;;;;;;5076257;28;20044;-84
2022/05/17 06:50:31;;;;;;;2.50;0.40;;;19.10;74.80;;;;;;5053125;28;20072;-85
2022/05/17 06:52:58;;;;;;;2.65;0.70;;;19.20;74.40;;;;;;5094813;28;20040;-85
2022/05/17 06:55:26;;;;;;;2.38;0.50;;;19.20;73.60;;;;;;5092017;28;20039;-86
2022/05/17 06:57:53;;;;;;;2.67;0.50;;;19.30;73.20;;;;;;5095570;28;20036;-85
2022/05/17 07:00:20;;;;;;;6.30;0.68;;;19.30;73.10;;;;;;5093249;28;20055;-86
2022/05/17 07:02:49;;;;;;;2.83;0.50;;;19.40;72.80;;;;;;5094366;28;20048;-85
2022/05/17 07:05:17;;;;;;;1.65;0.50;;;19.50;72.60;;;;;;5078327;28;20054;-86
2022/05/17 07:07:46;;;;;;;2.58;0.43;;;19.60;72.20;;;;;;5080996;28;20052;-85
2022/05/17 07:13:08;;;;;;;1.75;0.40;;;19.90;71.30;;;;;;5099798;28;20125;-84
2022/05/17 07:15:37;;;;;;;1.48;0.52;;;19.90;71.20;;;;;;5111159;28;20503;-84
2022/05/17 07:18:05;;;;;;;1.58;0.35;;;19.90;70.80;;;;;;5111159;28;20480;-84
2022/05/17 07:20:33;;;;;;;4.38;0.70;;;20.00;70.90;;;;;;5084629;28;20036;-85
2022/05/17 07:23:00;;;;;;;1.20;0.60;;;19.90;70.50;;;;;;5083402;28;20044;-84
2022/05/17 07:25:27;;;;;;;1.33;0.60;;;19.80;70.50;;;;;;5094787;28;20055;-84
2022/05/17 07:27:54;;;;;;;2.28;0.43;;;19.80;70.60;;;;;;5077253;28;20055;-84
2022/05/17 07:30:21;;;;;;;2.13;0.47;;;19.80;70.60;;;;;;5064605;28;20459;-84
2022/05/17 07:32:52;;;;;;;3.30;0.57;;;19.70;70.60;;;;;;5112436;28;20039;-84
2022/05/17 07:35:21;;;;;;;2.13;0.50;;;19.70;70.20;;;;;;5108215;28;20070;-84
2022/05/17 07:37:49;;;;;;;3.17;0.70;;;19.60;70.10;;;;;;5071847;28;20040;-81
2022/05/17 07:40:17;;;;;;;3.70;0.88;;;19.60;70.30;;;;;;5095325;28;20040;-83
2022/05/17 07:42:45;;;;;;;2.00;0.50;;;19.60;70.40;;;;;;5094810;28;20073;-84
2022/05/17 07:45:14;;;;;;;3.28;0.63;;;19.50;70.50;;;;;;5111644;28;20419;-85
2022/05/17 07:47:41;;;;;;;2.10;0.40;;;19.60;70.60;;;;;;5102097;28;20070;-84
2022/05/17 07:50:09;;;;;;;1.27;0.50;;;19.60;70.60;;;;;;5103534;28;20062;-84
2022/05/17 07:52:37;;;;;;;1.70;0.50;;;19.60;70.70;;;;;;5103109;28;20054;-83
2022/05/17 07:55:05;;;;;;;2.95;0.50;;;19.60;70.70;;;;;;5061079;28;20511;-82
2022/05/17 07:57:32;;;;;;;1.30;0.38;;;19.60;70.80;;;;;;5111356;28;20036;-83
2022/05/17 07:59:59;;;;;;;2.67;0.30;;;19.60;70.70;;;;;;5093032;28;20112;-83
2022/05/17 08:02:26;;;;;;;1.42;0.32;;;19.60;70.60;;;;;;5092953;28;20051;-84
2022/05/17 08:04:54;;;;;;;1.95;0.40;;;19.60;70.60;;;;;;5088574;28;20105;-83
2022/05/17 08:07:21;;;;;;;2.22;0.30;;;19.60;70.70;;;;;;5067458;28;20044;-82
2022/05/17 08:09:51;;;;;;;1.92;0.52;;;19.60;70.60;;;;;;5088953;28;20059;-83
2022/05/17 08:12:18;;;;;;;2.03;0.50;;;19.50;70.60;;;;;;5074401;28;20067;-80
2022/05/17 08:14:47;;;;;;;2.30;0.40;;;19.40;70.70;;;;;;5077019;28;20137;-80
2022/05/17 08:17:14;;;;;;;1.90;0.47;;;19.40;70.70;;;;;;5109426;28;20054;-80
2022/05/17 08:19:41;;;;;;;1.48;0.40;;;19.40;70.70;;;;;;5092463;28;20063;-80
2022/05/17 08:22:13;;;;;;;1.73;0.30;;;19.40;70.60;;;;;;5104743;28;20043;-79
2022/05/17 08:27:32;;;;;;;1.17;0.20;;;19.40;70.50;;;;;;5073383;28;20491;-82
2022/05/17 08:30:00;;;;;;;2.25;0.40;;;19.50;70.40;;;;;;5068775;28;20113;-80
2022/05/17 08:35:13;;;;;;;1.08;0.30;;;19.60;70.20;;;;;;5089888;28;20044;-81
2022/05/17 08:37:40;;;;;;;1.00;0.30;;;19.60;70.00;;;;;;5040957;28;20128;-79
2022/05/17 08:40:10;;;;;;;3.22;0.32;;;19.70;70.00;;;;;;5078339;28;20043;-80
2022/05/17 08:43:03;;;;;;;2.20;0.50;;;19.70;69.80;;;;;;5092283;28;20043;-80
2022/05/17 08:46:21;;;;;;;0.98;0.30;;;19.80;69.80;;;;;;5108121;28;20055;-80
2022/05/17 08:49:02;;;;;;;1.20;0.30;;;19.90;69.70;;;;;;5057274;28;20044;-81
2022/05/17 08:51:45;;;;;;;1.85;0.30;;;19.90;69.60;;;;;;5084735;28;20048;-80
2022/05/17 08:54:17;;;;;;;0.82;0.32;;;19.90;69.60;;;;;;5110022;28;20085;-80
2022/05/17 08:56:50;;;;;;;2.15;0.50;;;19.90;69.60;;;;;;5097192;28;20048;-80
2022/05/17 08:59:23;;;;;;;2.05;0.40;;;19.90;69.60;;;;;;5113458;28;20040;-80
2022/05/17 09:02:00;;;;;;;1.00;0.30;;;19.90;69.40;;;;;;5109503;28;20035;-81
2022/05/17 09:05:02;;;;;;;1.10;0.20;;;19.90;69.20;;;;;;5096387;28;20127;-81
2022/05/17 09:08:00;;;;;;;1.43;0.50;;;20.00;68.80;;;;;;5101770;28;20568;-81
2022/05/17 09:10:35;;;;;;;1.90;0.40;;;20.10;68.70;;;;;;5089958;28;20316;-80
2022/05/17 09:13:12;;;;;;;4.05;0.60;;;20.20;68.50;;;;;;5082487;28;20054;-80
2022/05/17 09:15:40;;;;;;;1.33;0.20;;;20.30;68.30;;;;;;5113758;28;20056;-80
2022/05/17 09:18:12;;;;;;;2.30;0.40;;;20.30;68.10;;;;;;5079514;28;20556;-80
2022/05/17 09:20:39;;;;;;;0.65;0.30;;;20.30;67.90;;;;;;5113410;28;20051;-82
2022/05/17 09:23:08;;;;;;;1.92;0.20;;;20.40;67.70;;;;;;5093741;28;20206;-82
2022/05/17 09:26:07;;;;;;;1.10;0.20;;;20.60;67.30;;;;;;5096428;28;20457;-82
2022/05/17 09:29:01;;;;;;;1.95;0.30;;;20.90;66.80;;;;;;5086364;28;20039;-81
2022/05/17 09:31:31;;;;;;;2.33;0.40;;;20.90;66.40;;;;;;5112584;28;20058;-83
2022/05/17 09:34:02;;;;;;;1.00;0.30;;;21.00;66.40;;;;;;5112485;28;20541;-81
2022/05/17 09:36:42;;;;;;;0.95;0.20;;;21.00;66.90;;;;;;5112462;28;20046;-81
2022/05/17 09:39:11;;;;;;;0.65;0.10;;;21.10;66.20;;;;;;5110684;28;20499;-84
2022/05/17 09:41:40;;;;;;;2.17;0.30;;;21.20;66.30;;;;;;5111943;28;20103;-83
2022/05/17 09:44:30;;;;;;;1.65;0.30;;;21.30;66.20;;;;;;5111483;28;20188;-83
2022/05/17 09:47:05;;;;;;;1.98;0.47;;;21.40;65.90;;;;;;5102167;28;20101;-81
2022/05/17 09:55:08;;;;;;;1.63;0.20;;;21.60;65.50;;;;;;5113383;28;20063;-85
2022/05/17 09:57:36;;;;;;;1.60;0.30;;;21.60;65.50;;;;;;5103624;28;20048;-85
2022/05/17 10:00:12;;;;;;;3.13;0.40;;;21.50;65.60;;;;;;5094123;28;20411;-86
2022/05/17 10:02:53;;;;;;;0.65;0.30;;;21.50;65.50;;;;;;5109334;28;20094;-84
2022/05/17 10:05:43;;;;;;;0.50;0.25;;;21.50;65.50;;;;;;5110833;28;20450;-88
2022/05/17 10:08:13;;;;;;;0.90;0.28;;;21.50;65.50;;;;;;5085829;28;20433;-78
2022/05/17 10:11:00;;;;;;;2.28;0.40;;;21.60;65.30;;;;;;5100285;28;20116;-79
2022/05/17 10:13:51;;;;;;;1.45;0.30;;;21.70;65.10;;;;;;5088736;28;20133;-80
2022/05/17 10:16:33;;;;;;;1.60;0.50;;;21.90;64.90;;;;;;5089972;28;20093;-87
2022/05/17 10:19:12;;;;;;;1.48;0.50;;;22.10;64.70;;;;;;5105328;28;20468;-81
2022/05/17 10:22:04;;;;;;;2.90;0.60;;;22.40;64.30;;;;;;5119812;27;20048;-80
2022/05/17 10:24:45;;;;;;;2.03;0.52;;;22.80;63.40;;;;;;5115759;27;20518;-81
2022/05/17 10:27:15;;;;;;;1.67;0.30;;;23.40;62.80;;;;;;5106325;28;20141;-79
2022/05/17 10:29:54;;;;;;;3.05;0.40;;;23.60;62.20;;;;;;5101584;28;20036;-80
2022/05/17 10:32:59;;;;;;;3.15;0.90;;;24.00;61.70;;;;;;5101470;28;20098;-78
2022/05/17 10:35:44;;;;;;;2.05;0.80;;;24.40;61.10;;;;;;5056258;28;20048;-82
2022/05/17 10:38:27;;;;;;;2.78;0.80;;;24.50;60.70;;;;;;5100884;28;20399;-81
2022/05/17 10:40:56;;;;;;;4.45;0.75;;;24.70;60.30;;;;;;5107332;28;20066;-81
2022/05/17 10:43:36;;;;;;;3.55;0.80;;;24.70;60.10;;;;;;5092623;28;20100;-81
2022/05/17 10:46:08;;;;;;;2.63;0.73;;;24.80;59.90;;;;;;5099955;28;20092;-80
2022/05/17 10:48:46;;;;;;;2.00;0.60;;;24.70;59.90;;;;;;5111619;28;20047;-80
2022/05/17 10:51:25;;;;;;;4.65;0.85;;;24.70;60.10;;;;;;5091916;28;20051;-84
2022/05/17 10:54:29;;;;;;;2.15;0.60;;;24.60;60.20;;;;;;5084958;28;20040;-87
2022/05/17 10:57:22;;;;;;;2.83;0.50;;;24.50;60.10;;;;;;5094600;28;20044;-84
2022/05/17 11:00:14;;;;;;;2.63;0.50;;;24.50;60.20;;;;;;5093776;28;20377;-85
2022/05/17 11:03:07;;;;;;;2.50;0.57;;;24.60;60.00;;;;;;5109173;28;20047;-84
2022/05/17 11:05:53;;;;;;;2.65;0.70;;;24.70;59.80;;;;;;5093238;28;20071;-82
2022/05/17 11:08:52;;;;;;;2.42;0.68;;;24.90;59.50;;;;;;5083942;28;20071;-88
2022/05/17 11:11:28;;;;;;;4.05;1.10;;;25.10;59.10;;;;;;5091610;28;20047;-85
2022/05/17 11:14:30;;;;;;;2.40;0.50;;;25.20;58.80;;;;;;5111238;28;20054;-80
2022/05/17 11:17:22;;;;;;;2.55;0.70;;;25.10;58.50;;;;;;5093708;28;20104;-81
2022/05/17 11:20:22;;;;;;;1.58;0.65;;;24.80;58.70;;;;;;5089882;28;20067;-78
2022/05/17 11:23:04;;;;;;;3.20;0.80;;;24.60;59.00;;;;;;5078319;28;20044;-77
2022/05/17 11:25:47;;;;;;;1.60;0.50;;;24.60;59.20;;;;;;5103123;28;20048;-78
2022/05/17 11:28:31;;;;;;;2.38;0.52;;;24.60;58.90;;;;;;5090437;28;20044;-77
2022/05/17 11:31:13;;;;;;;1.88;0.60;;;24.70;58.80;;;;;;5110001;28;20411;-77
2022/05/17 11:33:45;;;;;;;2.25;0.90;;;25.00;58.40;;;;;;5090048;28;20052;-77
2022/05/17 11:36:32;;;;;;;2.40;0.80;;;25.10;58.00;;;;;;5111942;28;20047;-80
2022/05/17 11:39:01;;;;;;;2.70;0.70;;;25.30;57.80;;;;;;5114088;28;20036;-79
2022/05/17 11:41:34;;;;;;;2.85;0.77;;;25.50;57.60;;;;;;5090708;28;20047;-80
2022/05/17 11:44:05;;;;;;;1.90;0.88;;;25.60;57.30;;;;;;5089368;28;20135;-79
2022/05/17 11:46:34;;;;;;;1.65;0.68;;;25.50;57.00;;;;;;5086284;28;20040;-79
2022/05/17 11:49:10;;;;;;;3.47;0.68;;;25.40;57.20;;;;;;5092561;28;20047;-85
2022/05/17 11:51:59;;;;;;;1.13;0.52;;;25.50;57.30;;;;;;5109623;28;20047;-79
2022/05/17 11:54:46;;;;;;;2.45;0.88;;;25.50;57.40;;;;;;5123697;28;20063;-82
2022/05/17 11:57:37;;;;;;;2.03;0.73;;;25.40;57.10;;;;;;5104017;28;20063;-80
2022/05/17 12:00:30;;;;;;;2.60;0.70;;;25.40;57.20;;;;;;5106628;28;20044;-87
2022/05/17 12:03:04;;;;;;;2.78;0.55;;;25.40;57.20;;;;;;5079753;28;20381;-82
2022/05/17 12:05:37;;;;;;;1.00;0.50;;;25.50;57.10;;;;;;5110946;28;20048;-87
2022/05/17 12:08:27;;;;;;;1.23;0.50;;;25.70;56.70;;;;;;5113190;28;20047;-87
2022/05/17 12:11:10;;;;;;;1.10;0.45;;;25.80;56.40;;;;;;5110771;28;20325;-82
2022/05/17 12:14:09;;;;;;;1.58;0.30;;;26.00;56.10;;;;;;5113757;28;20101;-83
2022/05/17 12:16:44;;;;;;;1.02;0.50;;;26.20;55.80;;;;;;5104038;28;20032;-80
2022/05/17 12:19:29;;;;;;;2.03;0.40;;;26.30;55.60;;;;;;5099791;28;20127;-79
2022/05/17 12:22:11;;;;;;;2.08;0.45;;;26.40;55.30;;;;;;5090753;28;20394;-80
2022/05/17 12:24:56;;;;;;;1.52;0.50;;;26.60;55.20;;;;;;5114545;28;20059;-80
2022/05/17 12:27:29;;;;;;;1.30;0.50;;;27.10;54.60;;;;;;5108151;28;20097;-79
2022/05/17 12:33:30;;;;;;;2.78;0.63;;;27.60;53.80;;;;;;5108287;28;20097;-80
2022/05/17 12:36:31;;;;;;;1.58;0.50;;;28.10;53.20;;;;;;5085994;28;20040;-80
2022/05/17 12:44:55;;;;;;;2.15;0.50;;;28.90;52.10;;;;;;5114232;28;20054;-80
2022/05/17 12:47:37;;;;;;;1.50;0.60;;;29.50;51.60;;;;;;5103499;28;20044;-78
2022/05/17 12:50:06;;;;;;;1.58;0.65;;;30.20;50.80;;;;;;5114211;28;20043;-77
2022/05/17 12:52:36;;;;;;;1.50;0.73;;;30.60;50.20;;;;;;5097639;28;20039;-77
2022/05/17 12:55:19;;;;;;;1.60;0.50;;;31.10;49.70;;;;;;5096148;28;20549;-78
2022/05/17 12:57:47;;;;;;;2.53;0.75;;;31.30;49.30;;;;;;5096505;28;20556;-78
2022/05/17 13:00:23;;;;;;;0.88;0.40;;;31.50;49.20;;;;;;5096180;28;20211;-77
2022/05/17 13:02:55;;;;;;;1.90;0.60;;;31.70;48.80;;;;;;5093590;28;20050;-77
2022/05/17 13:05:35;;;;;;;2.08;0.50;;;31.90;48.50;;;;;;5087459;28;20056;-80
2022/05/17 13:08:07;;;;;;;2.28;0.50;;;32.20;48.10;;;;;;5113407;28;20032;-78
2022/05/17 13:10:36;;;;;;;2.50;0.70;;;32.40;47.90;;;;;;5113239;28;20105;-78
2022/05/17 13:13:21;;;;;;;0.95;0.40;;;32.40;47.50;;;;;;5088766;28;20448;-79
2022/05/17 13:15:55;;;;;;;1.08;0.47;;;32.30;47.40;;;;;;5095992;28;20040;-79
2022/05/17 13:18:27;;;;;;;1.73;0.40;;;31.70;47.60;;;;;;5098726;28;20118;-77
2022/05/17 13:20:54;;;;;;;2.00;0.50;;;30.90;48.10;;;;;;5089629;28;20046;-78
2022/05/17 13:23:26;;;;;;;4.07;0.52;;;30.60;48.70;;;;;;5094999;28;20032;-77
2022/05/17 13:25:55;;;;;;;1.92;0.45;;;30.90;48.20;;;;;;5109174;28;20066;-78
2022/05/17 13:28:29;;;;;;;1.05;0.38;;;31.40;47.50;;;;;;5114683;28;20046;-78
2022/05/17 13:31:09;;;;;;;1.88;0.70;;;32.00;46.80;;;;;;5090130;28;20126;-78
2022/05/17 13:33:46;;;;;;;1.50;0.40;;;32.60;46.20;;;;;;5114456;28;20146;-81
2022/05/17 13:36:28;;;;;;;1.85;0.50;;;33.00;45.70;;;;;;5114893;27;20044;-77
2022/05/17 13:38:55;;;;;;;1.65;0.47;;;33.40;45.40;;;;;;5110572;28;20031;-81
2022/05/17 13:41:39;;;;;;;1.15;0.30;;;33.70;44.80;;;;;;5110628;28;20130;-81